• Join FlightAware (Why Join?)
  • Login
  • US Flag 
05:35AM EDT


 

Airport Tracker/Info


-or-


 

Live Flight TrackerFlight Track Log ✈ BAW228 ✈ 23-May-2013 ✈ KBWI - EGLL / LHR

Flight Track Log - Related Links

Times and Time Zones

All times are in EDT time to prevent confusion due to time zone crossing. See the BAW228 flight status page for this flight to view local times or setup timezone preferences in your user account.

Time Position Orientation Groundspeed Altitude Reporting Facility
EDT Latitude Longitude Course Direction KTS MPH feet Rate Location/Type
12:15AM 49.1000 -59.1500 53° Northeast 500 575 35,000  Level Moncton Center
12:16AM 49.1833 -58.9833 53° Northeast 500 575 35,000  Level Moncton Center
12:17AM 49.2500 -58.8000 61° Northeast 500 575 35,000  Level Moncton Center
12:18AM 49.3333 -58.6333 52° Northeast 500 575 35,000  Level Moncton Center
12:23AM 49.7450 -57.6120 52° Northeast 518 596 35,000  Level FlightAware
12:24AM 49.7667 -57.4667 52° Northeast 510 587 35,000  Level Moncton Center
12:25AM 49.8333 -57.2833 61° Northeast 520 598 35,000  Level Moncton Center
12:26AM 49.9000 -57.0833 63° Northeast 520 598 35,000  Level Moncton Center
12:26AM 49.9000 -57.0167 90° East 520 598 35,000  Level Gander Center
12:27AM 49.9833 -56.8333 55° Northeast 520 598 35,000 120 Level Gander Center
12:28AM 50.0333 -56.6667 65° Northeast 520 598 35,300 600 Climbing Moncton Center
12:29AM 50.1000 -56.4833 60° Northeast 520 598 36,100 840 Climbing Moncton Center
12:29AM 50.1167 -56.4333 63° Northeast 520 598 36,400 660 Climbing Gander Center
12:30AM 50.1833 -56.2333 62° Northeast 520 598 37,000 300 Climbing Gander Center
12:31AM 50.2500 -56.0167 64° Northeast 520 598 37,000  Level Gander Center
12:32AM 50.2833 -55.9000 66° East 520 598 37,000  Level Moncton Center
12:32AM 50.3167 -55.8333 52° Northeast 520 598 37,000  Level Gander Center
12:33AM 50.3833 -55.6167 64° Northeast 530 610 37,000  Level Gander Center
12:34AM 50.4333 -55.4833 59° Northeast 530 610 37,000  Level Moncton Center
12:35AM 50.5000 -55.2500 66° East 520 598 37,000  Level Moncton Center
12:36AM 50.5500 -55.0500 68° East 520 598 37,000  Level Moncton Center
12:36AM 50.5667 -55.0167 52° Northeast 520 598 37,000  Level Gander Center
12:37AM 50.6333 -54.8167 62° Northeast 520 598 37,000  Level Gander Center
12:43AM 51.0030 -53.6700 62° Northeast 529 609 37,000  Level FlightAware
12:43AM 51.0400 -53.5510 64° Northeast 529 609 37,000  Level FlightAware
12:44AM 51.0850 -53.4030 64° Northeast 529 609 37,000  Level FlightAware
12:45AM 51.1220 -53.2840 64° Northeast 529 609 37,000  Level FlightAware
12:46AM 51.1580 -53.1640 64° Northeast 529 609 37,000  Level FlightAware
12:46AM 51.1950 -53.0450 64° Northeast 529 609 37,000  Level FlightAware
12:47AM 51.2310 -52.9260 64° Northeast 529 609 37,000  Level FlightAware
12:48AM 51.2680 -52.8060 64° Northeast 529 609 37,000  Level FlightAware
12:48AM 51.3130 -52.6570 64° Northeast 529 609 37,000  Level FlightAware
12:49AM 51.3500 -52.5370 64° Northeast 529 609 37,000  Level FlightAware
12:50AM 51.3860 -52.4170 64° Northeast 529 609 37,000  Level FlightAware
12:50AM 51.4220 -52.2970 64° Northeast 529 609 37,000  Level FlightAware
12:51AM 51.4590 -52.1770 64° Northeast 529 609 37,000  Level FlightAware
12:52AM 51.5050 -52.0270 64° Northeast 529 609 37,000  Level FlightAware
12:53AM 51.5667 -51.4833 64° Northeast 520 598 37,000  Level Moncton Center
12:53AM 51.6000 -51.4167 51° Northeast 530 610 37,000  Level Gander Center
12:54AM 51.6667 -51.1833 65° Northeast 520 598 37,000  Level Gander Center
12:55AM 51.7167 -50.9833 68° East 530 610 37,000  Level Gander Center
12:56AM 51.7500 -50.7500 77° East 520 598 37,000  Level Gander Center
12:57AM 51.8167 -50.5500 62° Northeast 520 598 37,000  Level Gander Center
12:58AM 51.8833 -50.3333 63° Northeast 530 610 37,000  Level Gander Center
01:00AM 51.9965 -50.0099 60° Northeast  Level FlightAware Approximate
01:01AM 52.0000 -50.0000 77° East 528 608 37,000  Level ETMS Enhanced Traffic Management System
01:07AM 52.2247 -48.3676 78° East 528 608 37,000  Level FlightAware Transoceanic
01:08AM 52.2549 -48.1331 78° East 528 608 37,000  Level FlightAware Transoceanic
01:09AM 52.2847 -47.8983 78° East 528 608 37,000  Level FlightAware Transoceanic
01:10AM 52.3140 -47.6631 79° East 528 608 37,000  Level FlightAware Transoceanic
01:11AM 52.3429 -47.4276 79° East 528 608 37,000  Level FlightAware Transoceanic
01:12AM 52.3713 -47.1919 79° East 528 608 37,000  Level FlightAware Transoceanic
01:13AM 52.3992 -46.9558 79° East 528 608 37,000  Level FlightAware Transoceanic
01:14AM 52.4266 -46.7195 79° East 528 608 37,000  Level FlightAware Transoceanic
01:15AM 52.4536 -46.4828 80° East 528 608 37,000  Level FlightAware Transoceanic
01:16AM 52.4801 -46.2459 80° East 528 608 37,000  Level FlightAware Transoceanic
01:17AM 52.5061 -46.0086 80° East 528 608 37,000  Level FlightAware Transoceanic
01:18AM 52.5317 -45.7711 80° East 528 608 37,000  Level FlightAware Transoceanic
01:19AM 52.5567 -45.5334 80° East 528 608 37,000  Level FlightAware Transoceanic
01:20AM 52.5813 -45.2953 80° East 528 608 37,000  Level FlightAware Transoceanic
01:21AM 52.6054 -45.0570 81° East 528 608 37,000  Level FlightAware Transoceanic
01:22AM 52.6291 -44.8184 81° East 528 608 37,000  Level FlightAware Transoceanic
01:23AM 52.6522 -44.5796 81° East 528 608 37,000  Level FlightAware Transoceanic
01:24AM 52.6749 -44.3405 81° East 528 608 37,000  Level FlightAware Transoceanic
01:25AM 52.6971 -44.1012 81° East 528 608 37,000  Level FlightAware Transoceanic
01:26AM 52.7188 -43.8617 82° East 528 608 37,000  Level FlightAware Transoceanic
01:27AM 52.7401 -43.6219 82° East 528 608 37,000  Level FlightAware Transoceanic
01:28AM 52.7608 -43.3818 82° East 528 608 37,000  Level FlightAware Transoceanic
01:29AM 52.7811 -43.1416 82° East 528 608 37,000  Level FlightAware Transoceanic
01:30AM 52.8008 -42.9011 82° East 528 608 37,000  Level FlightAware Transoceanic
01:31AM 52.8201 -42.6604 83° East 528 608 37,000  Level FlightAware Transoceanic
01:32AM 52.8389 -42.4195 83° East 528 608 37,000  Level FlightAware Transoceanic
01:33AM 52.8572 -42.1784 83° East 528 608 37,000  Level FlightAware Transoceanic
01:34AM 52.8751 -41.9371 83° East 528 608 37,000  Level FlightAware Transoceanic
01:35AM 52.8924 -41.6956 83° East 528 608 37,000  Level FlightAware Transoceanic
01:36AM 52.9092 -41.4539 84° East 528 608 37,000  Level FlightAware Transoceanic
01:37AM 52.9256 -41.2120 84° East 528 608 37,000  Level FlightAware Transoceanic
01:38AM 52.9415 -40.9699 84° East 528 608 37,000  Level FlightAware Transoceanic
01:39AM 52.9568 -40.7277 84° East 528 608 37,000  Level FlightAware Transoceanic
01:40AM 52.9717 -40.4853 84° East 528 608 37,000  Level FlightAware Transoceanic
01:41AM 52.9861 -40.2427 84° East 528 608 37,000  Level FlightAware Transoceanic
01:42AM 52.9991 -40.0152 84° East  Level FlightAware Approximate
01:43AM 53.0118 -39.7876 85° East  Level FlightAware Approximate
01:43AM 53.0000 -40.0000 86° East 515 593 37,000  Level ETMS Enhanced Traffic Management System
01:44AM 53.0081 -39.8024 86° East  Level FlightAware Approximate
01:45AM 53.0171 -39.5743 86° East  Level FlightAware Approximate
01:46AM 53.0257 -39.3460 86° East  Level FlightAware Approximate
01:47AM 53.0338 -39.1177 87° East  Level FlightAware Approximate
01:48AM 53.0415 -38.8893 87° East  Level FlightAware Approximate
01:49AM 53.0487 -38.6608 87° East  Level FlightAware Approximate
01:50AM 53.0647 -38.0983 88° East 515 593 37,000  Level FlightAware Transoceanic
01:51AM 53.0706 -37.8603 88° East 515 593 37,000  Level FlightAware Transoceanic
01:52AM 53.0761 -37.6221 88° East 515 593 37,000  Level FlightAware Transoceanic
01:53AM 53.0811 -37.3839 88° East 515 593 37,000  Level FlightAware Transoceanic
01:54AM 53.0856 -37.1457 88° East 515 593 37,000  Level FlightAware Transoceanic
01:55AM 53.0897 -36.9074 88° East 515 593 37,000  Level FlightAware Transoceanic
01:56AM 53.0933 -36.6691 89° East 515 593 37,000  Level FlightAware Transoceanic
01:57AM 53.0964 -36.4307 89° East 515 593 37,000  Level FlightAware Transoceanic
01:58AM 53.0990 -36.1923 89° East 515 593 37,000  Level FlightAware Transoceanic
01:59AM 53.1011 -35.9539 89° East 515 593 37,000  Level FlightAware Transoceanic
02:00AM 53.1028 -35.7154 89° East 515 593 37,000  Level FlightAware Transoceanic
02:01AM 53.1040 -35.4770 90° East 515 593 37,000  Level FlightAware Transoceanic
02:02AM 53.1047 -35.2385 90° East 515 593 37,000  Level FlightAware Transoceanic
02:03AM 53.1049 -35.0000 90° East 515 593 37,000  Level FlightAware Transoceanic
02:04AM 53.1047 -34.7615 90° East 515 593 37,000  Level FlightAware Transoceanic
02:05AM 53.1040 -34.5230 90° East 515 593 37,000  Level FlightAware Transoceanic
02:06AM 53.1028 -34.2846 91° East 515 593 37,000  Level FlightAware Transoceanic
02:07AM 53.1011 -34.0461 91° East 515 593 37,000  Level FlightAware Transoceanic
02:08AM 53.0990 -33.8077 91° East 515 593 37,000  Level FlightAware Transoceanic
02:09AM 53.0964 -33.5693 91° East 515 593 37,000  Level FlightAware Transoceanic
02:10AM 53.0933 -33.3309 91° East 515 593 37,000  Level FlightAware Transoceanic
02:11AM 53.0897 -33.0926 92° East 515 593 37,000  Level FlightAware Transoceanic
02:12AM 53.0856 -32.8543 92° East 515 593 37,000  Level FlightAware Transoceanic
02:13AM 53.0811 -32.6161 92° East 515 593 37,000  Level FlightAware Transoceanic
02:14AM 53.0761 -32.3779 92° East 515 593 37,000  Level FlightAware Transoceanic
02:15AM 53.0706 -32.1397 92° East 515 593 37,000  Level FlightAware Transoceanic
02:16AM 53.0647 -31.9017 92° East 515 593 37,000  Level FlightAware Transoceanic
02:17AM 53.0583 -31.6637 93° East 515 593 37,000  Level FlightAware Transoceanic
02:18AM 53.0514 -31.4257 93° East 515 593 37,000  Level FlightAware Transoceanic
02:19AM 53.0440 -31.1879 93° East 515 593 37,000  Level FlightAware Transoceanic
02:20AM 53.0361 -30.9501 93° East 515 593 37,000  Level FlightAware Transoceanic
02:21AM 53.0278 -30.7124 93° East 515 593 37,000  Level FlightAware Transoceanic
02:22AM 53.0190 -30.4749 94° East 515 593 37,000  Level FlightAware Transoceanic
02:23AM 53.0097 -30.2374 94° East 515 593 37,000  Level FlightAware Transoceanic
02:24AM 53.0004 -30.0093 94° East  Level FlightAware Approximate
02:25AM 52.9906 -29.7813 94° East  Level FlightAware Approximate
02:26AM 53.0086 -29.7905 86° East  Level FlightAware Approximate
02:27AM 53.0176 -29.5624 86° East  Level FlightAware Approximate
02:27AM 53.0000 -30.0000 86° East 491 565 37,000  Level ETMS Enhanced Traffic Management System
02:28AM 53.0261 -29.3341 86° East  Level FlightAware Approximate
02:29AM 53.0342 -29.1058 87° East  Level FlightAware Approximate
02:30AM 53.0419 -28.8774 87° East  Level FlightAware Approximate
02:31AM 53.0491 -28.6489 87° East  Level FlightAware Approximate
02:32AM 53.0559 -28.4203 87° East  Level FlightAware Approximate
02:33AM 53.0624 -28.1849 87° East 491 565 37,000  Level FlightAware Transoceanic
02:34AM 53.0683 -27.9577 88° East 491 565 37,000  Level FlightAware Transoceanic
02:35AM 53.0737 -27.7304 88° East 491 565 37,000  Level FlightAware Transoceanic
02:36AM 53.0787 -27.5030 88° East 491 565 37,000  Level FlightAware Transoceanic
02:37AM 53.0832 -27.2757 88° East 491 565 37,000  Level FlightAware Transoceanic
02:38AM 53.0873 -27.0482 88° East 491 565 37,000  Level FlightAware Transoceanic
02:39AM 53.0910 -26.8207 89° East 491 565 37,000  Level FlightAware Transoceanic
02:40AM 53.0943 -26.5932 89° East 491 565 37,000  Level FlightAware Transoceanic
02:41AM 53.0971 -26.3657 89° East 491 565 37,000  Level FlightAware Transoceanic
02:42AM 53.0995 -26.1381 89° East 491 565 37,000  Level FlightAware Transoceanic
02:43AM 53.1015 -25.9105 89° East 491 565 37,000  Level FlightAware Transoceanic
02:44AM 53.1030 -25.6829 89° East 491 565 37,000  Level FlightAware Transoceanic
02:45AM 53.1041 -25.4553 90° East 491 565 37,000  Level FlightAware Transoceanic
02:46AM 53.1047 -25.2276 90° East 491 565 37,000  Level FlightAware Transoceanic
02:47AM 53.1049 -25.0000 90° East 491 565 37,000  Level FlightAware Transoceanic
02:48AM 53.1047 -24.7724 90° East 491 565 37,000  Level FlightAware Transoceanic
02:49AM 53.1041 -24.5447 90° East 491 565 37,000  Level FlightAware Transoceanic
02:50AM 53.1030 -24.3171 91° East 491 565 37,000  Level FlightAware Transoceanic
02:51AM 53.1015 -24.0895 91° East 491 565 37,000  Level FlightAware Transoceanic
02:52AM 53.0995 -23.8619 91° East 491 565 37,000  Level FlightAware Transoceanic
02:53AM 53.0971 -23.6343 91° East 491 565 37,000  Level FlightAware Transoceanic
02:54AM 53.0943 -23.4068 91° East 491 565 37,000  Level FlightAware Transoceanic
02:55AM 53.0910 -23.1793 91° East 491 565 37,000  Level FlightAware Transoceanic
02:56AM 53.0873 -22.9518 92° East 491 565 37,000  Level FlightAware Transoceanic
02:57AM 53.0832 -22.7243 92° East 491 565 37,000  Level FlightAware Transoceanic
02:58AM 53.0787 -22.4970 92° East 491 565 37,000  Level FlightAware Transoceanic
02:59AM 53.0737 -22.2696 92° East 491 565 37,000  Level FlightAware Transoceanic
03:00AM 53.0683 -22.0423 92° East 491 565 37,000  Level FlightAware Transoceanic
03:01AM 53.0624 -21.8151 93° East 491 565 37,000  Level FlightAware Transoceanic
03:02AM 53.0561 -21.5879 93° East 491 565 37,000  Level FlightAware Transoceanic
03:03AM 53.0494 -21.3609 93° East 491 565 37,000  Level FlightAware Transoceanic
03:04AM 53.0422 -21.1338 93° East 491 565 37,000  Level FlightAware Transoceanic
03:05AM 53.0347 -20.9069 93° East 491 565 37,000  Level FlightAware Transoceanic
03:06AM 53.0266 -20.6800 93° East 491 565 37,000  Level FlightAware Transoceanic
03:07AM 53.0182 -20.4533 94° East 491 565 37,000  Level FlightAware Transoceanic
03:08AM 53.0093 -20.2266 94° East 491 565 37,000 -60 Level FlightAware Transoceanic
03:09AM 52.9999 -19.9985 94° East  Level FlightAware Approximate
03:10AM 53.0000 -19.9970 90° East  Level FlightAware Approximate
03:11AM 52.9991 -19.7685 90° East  Level FlightAware Approximate
03:12AM 52.9979 -19.5399 90° East  Level FlightAware Approximate
03:13AM 52.9962 -19.3114 91° East  Level FlightAware Approximate
03:14AM 52.9940 -19.0828 91° East  Level FlightAware Approximate
03:15AM 52.9914 -18.8543 91° East  Level FlightAware Approximate
03:16AM 52.9884 -18.6259 91° East  Level FlightAware Approximate
03:17AM 52.9849 -18.3974 91° East  Level FlightAware Approximate
03:18AM 52.9810 -18.1691 92° East  Level FlightAware Approximate
03:19AM 52.9767 -17.9407 92° East  Level FlightAware Approximate
03:20AM 52.9719 -17.7124 92° East  Level FlightAware Approximate
03:21AM 52.9667 -17.4841 92° East  Level FlightAware Approximate
03:22AM 52.9612 -17.2559 92° East  Level FlightAware Approximate
03:23AM 52.9553 -17.0278 92° East  Level FlightAware Approximate
03:24AM 52.9489 -16.7997 93° East  Level FlightAware Approximate
03:25AM 52.9421 -16.5717 93° East  Level FlightAware Approximate
03:26AM 52.9349 -16.3438 93° East  Level FlightAware Approximate
03:27AM 52.9272 -16.1159 93° East  Level FlightAware Approximate
03:28AM 52.9191 -15.8881 93° East  Level FlightAware Approximate
03:29AM 52.9106 -15.6604 93° East  Level FlightAware Approximate
03:30AM 52.9016 -15.4328 94° East  Level FlightAware Approximate
03:31AM 52.8922 -15.2053 94° East  Level FlightAware Approximate
03:32AM 52.8824 -14.9779 94° East  Level FlightAware Approximate
03:33AM 52.8729 -14.7506 94° East  Level FlightAware Approximate
03:34AM 52.8630 -14.5233 94° East  Level FlightAware Approximate
03:35AM 52.8526 -14.2961 94° East  Level FlightAware Approximate
03:36AM 52.8418 -14.0690 94° East  Level FlightAware Approximate
03:37AM 52.8306 -13.8421 95° East  Level FlightAware Approximate
03:38AM 52.8189 -13.6152 95° East  Level FlightAware Approximate
03:39AM 52.8068 -13.3885 95° East  Level FlightAware Approximate
03:40AM 52.7943 -13.1620 95° East  Level FlightAware Approximate
03:41AM 52.7813 -12.9355 95° East  Level FlightAware Approximate
03:42AM 52.7679 -12.7092 95° East  Level FlightAware Approximate
03:43AM 52.7541 -12.4830 96° East  Level FlightAware Approximate
03:44AM 52.7398 -12.2570 96° East  Level FlightAware Approximate
03:45AM 52.7251 -12.0311 96° East  Level FlightAware Approximate
03:46AM 52.7100 -11.8054 96° East  Level FlightAware Approximate
03:47AM 52.6945 -11.5799 96° East  Level FlightAware Approximate
03:48AM 52.6785 -11.3545 97° East  Level FlightAware Approximate
03:49AM 52.6621 -11.1292 97° East  Level FlightAware Approximate
03:50AM 52.6452 -10.9042 97° East  Level FlightAware Approximate
03:51AM 52.6280 -10.6793 97° East  Level FlightAware Approximate
03:52AM 52.6103 -10.4546 97° East  Level FlightAware Approximate
03:53AM 52.5922 -10.2301 97° East  Level FlightAware Approximate
03:54AM 52.5737 -10.0057 98° East  Level FlightAware Approximate
03:55AM 52.5547 -9.7816 98° East  Level FlightAware Approximate
03:56AM 52.5354 -9.5576 98° East  Level FlightAware Approximate
03:57AM 52.5156 -9.3339 98° East  Level FlightAware Approximate
03:58AM 52.4954 -9.1103 98° East  Level FlightAware Approximate
03:58AM 52.5021 -8.9709 99° East 444 511 35,500  Level FlightAware UK
03:59AM 52.4747 -8.8870 99° East  Level FlightAware Approximate
03:59AM 52.4959 -8.9093 99° East 442 509 35,500  Level FlightAware UK
03:59AM 52.4888 -8.8470 100° East 444 511 35,500  Level FlightAware UK
03:59AM 52.4819 -8.7847 100° East 440 506 35,500 -180 Level FlightAware UK
04:00AM 52.4747 -8.7223 101° East 432 497 35,400  Descending FlightAware UK
04:00AM 52.4677 -8.6601 100° East 436 502 35,500 120 Climbing FlightAware UK
04:00AM 52.4608 -8.5980 100° East 438 504 35,500  Level FlightAware UK
04:01AM 52.4538 -8.5359 101° East 440 506 35,500  Level FlightAware UK
04:01AM 52.4465 -8.4736 101° East 438 504 35,500  Level FlightAware UK
04:01AM 52.4395 -8.4110 100° East 436 502 35,500  Level FlightAware UK
04:01AM 52.4323 -8.3485 101° East 438 504 35,500  Level FlightAware UK
04:02AM 52.4248 -8.2855 101° East 446 513 35,500  Level FlightAware UK
04:02AM 52.4174 -8.2233 101° East 446 513 35,500  Level FlightAware UK
04:02AM 52.4100 -8.1613 101° East 446 513 35,500  Level FlightAware UK
04:03AM 52.4026 -8.0994 101° East 446 513 35,500  Level FlightAware UK
04:03AM 52.3954 -8.0375 101° East 444 511 35,500  Level FlightAware UK
04:03AM 52.3880 -7.9755 101° East 442 509 35,500  Level FlightAware UK
04:04AM 52.3805 -7.9136 101° East 438 504 35,500  Level FlightAware UK
04:04AM 52.3729 -7.8522 101° East 430 495 35,500  Level FlightAware UK
04:04AM 52.3656 -7.7925 101° East 426 490 35,500 -720 Level FlightAware UK
04:04AM 52.3589 -7.7344 101° East 418 481 35,100 -1,380 Descending FlightAware UK
04:05AM 52.3516 -7.6760 102° East 414 476 34,700 -1,380 Descending FlightAware UK
04:05AM 52.3444 -7.6180 101° East 414 476 34,300 -1,020 Descending FlightAware UK
04:05AM 52.3374 -7.5605 101° East 402 463 34,100 -840 Descending FlightAware UK
04:06AM 52.3306 -7.5045 101° East 394 453 33,800 -840 Descending FlightAware UK
04:06AM 52.3238 -7.4495 101° East 384 442 33,600 -840 Descending FlightAware UK
04:06AM 52.3169 -7.3948 102° East 380 437 33,300 -1,020 Descending FlightAware UK
04:07AM 52.3100 -7.3411 102° East 378 435 33,000 -1,020 Descending FlightAware UK
04:07AM 52.3032 -7.2882 102° East 374 430 32,700 -1,200 Descending FlightAware UK
04:07AM 52.2965 -7.2355 102° East 370 426 32,300 -1,380 Descending FlightAware UK
04:07AM 52.2899 -7.1831 102° East 370 426 31,900 -1,140 Descending FlightAware UK
04:08AM 52.2832 -7.1307 102° East 368 423 31,600 -660 Descending FlightAware UK
04:08AM 52.2765 -7.0792 102° East 364 419 31,500 -180 Descending FlightAware UK
04:08AM 52.2699 -7.0283 102° East 362 417 31,500  Level FlightAware UK
04:09AM 52.2634 -6.9778 102° East 364 419 31,500  Level FlightAware UK
04:09AM 52.2568 -6.9273 102° East 366 421 31,500  Level FlightAware UK
04:09AM 52.2500 -6.8766 102° East 364 419 31,500  Level FlightAware UK
04:10AM 52.2432 -6.8257 102° East 364 419 31,500  Level FlightAware UK
04:10AM 52.2365 -6.7747 102° East 364 419 31,500  Level FlightAware UK
04:10AM 52.2300 -6.7238 102° East 364 419 31,500  Level FlightAware UK
04:10AM 52.2233 -6.6728 102° East 366 421 31,500  Level FlightAware UK
04:11AM 52.2167 -6.6217 102° East 366 421 31,500  Level FlightAware UK
04:11AM 52.2101 -6.5707 102° East 366 421 31,500  Level FlightAware UK
04:11AM 52.2018 -6.5195 105° East 366 421 31,500  Level FlightAware UK
04:12AM 52.1923 -6.4679 107° East 372 428 31,500  Level FlightAware UK
04:12AM 52.1833 -6.4164 106° East 370 426 31,500  Level FlightAware UK
04:12AM 52.1747 -6.3653 105° East 368 423 31,500  Level FlightAware UK
04:13AM 52.1658 -6.3141 106° East 366 421 31,500  Level FlightAware UK
04:13AM 52.1571 -6.2628 106° East 370 426 31,500  Level FlightAware UK
04:13AM 52.1482 -6.2116 106° East 368 423 31,500  Level FlightAware UK
04:13AM 52.1394 -6.1604 106° East 366 421 31,500  Level FlightAware UK
04:14AM 52.1305 -6.1092 106° East 366 421 31,500  Level FlightAware UK
04:14AM 52.1217 -6.0579 106° East 368 423 31,500  Level FlightAware UK
04:14AM 52.1129 -6.0066 106° East 370 426 31,500  Level FlightAware UK
04:15AM 52.1040 -5.9548 106° East 370 426 31,500  Level FlightAware UK
04:15AM 52.0953 -5.9035 105° East 372 428 31,500  Level FlightAware UK
04:15AM 52.0866 -5.8522 105° East 372 428 31,500  Level FlightAware UK
04:16AM 52.0778 -5.8009 106° East 372 428 31,500  Level FlightAware UK
04:16AM 52.0689 -5.7498 106° East 370 426 31,500  Level FlightAware UK
04:16AM 52.0600 -5.6987 106° East 370 426 31,500  Level FlightAware UK
04:16AM 52.0511 -5.6477 106° East 372 428 31,500  Level FlightAware UK
04:17AM 52.0422 -5.5969 106° East 374 430 31,500  Level FlightAware UK
04:17AM 52.0244 -5.4955 106° East 374 430 31,500  Level FlightAware UK
04:18AM 52.0155 -5.4450 106° East 374 430 31,500  Level FlightAware UK
04:18AM 52.0067 -5.3948 106° East 374 430 31,500  Level FlightAware UK
04:18AM 51.9978 -5.3443 106° East 372 428 31,500  Level FlightAware UK
04:19AM 51.9890 -5.2945 106° East 372 428 31,500  Level FlightAware UK
04:19AM 51.9801 -5.2450 106° East 370 426 31,500  Level FlightAware UK
04:19AM 51.9711 -5.1957 106° East 370 426 31,500  Level FlightAware UK
04:19AM 51.9622 -5.1463 106° East 366 421 31,500  Level FlightAware UK
04:20AM 51.9533 -5.0971 106° East 364 419 31,500  Level FlightAware UK
04:20AM 51.9445 -5.0481 106° East 362 417 31,500  Level FlightAware UK
04:20AM 51.9357 -4.9994 106° East 360 414 31,500  Level FlightAware UK
04:21AM 51.9268 -4.9510 107° East 360 414 31,500  Level FlightAware UK
04:21AM 51.9183 -4.9032 106° East 358 412 31,500  Level FlightAware UK
04:21AM 51.9099 -4.8551 106° East 362 417 31,500  Level FlightAware UK
04:22AM 51.8986 -4.7901 106° East 362 417 31,500  Level FlightAware UK
04:22AM 51.8899 -4.7412 106° East 366 421 31,500  Level FlightAware UK
04:22AM 51.8812 -4.6920 106° East 366 421 31,500  Level FlightAware UK
04:23AM 51.8723 -4.6428 106° East 364 419 31,500  Level FlightAware UK
04:23AM 51.8632 -4.5936 107° East 364 419 31,500  Level FlightAware UK
04:23AM 51.8542 -4.5446 107° East 366 421 31,500  Level FlightAware UK
04:23AM 51.8452 -4.4958 107° East 364 419 31,500  Level FlightAware UK
04:24AM 51.8332 -4.4308 107° East 364 419 31,500  Level FlightAware UK
04:24AM 51.8240 -4.3824 107° East 360 414 31,500 -720 Level FlightAware UK
04:25AM 51.8119 -4.3181 107° East 362 417 31,000 -1,020 Descending FlightAware UK
04:26AM 51.7633 -4.0604 107° East 352 405 29,500 -960 Descending FlightAware UK
04:26AM 51.7539 -4.0119 107° East 352 405 29,200 -720 Descending FlightAware UK
04:27AM 51.7413 -3.9473 107° East 352 405 29,000 -480 Descending FlightAware UK
04:27AM 51.7318 -3.8991 108° East 350 403 28,900 -660 Descending FlightAware UK
04:28AM 51.7161 -3.8194 108° East 346 398 28,500 -900 Descending FlightAware UK
04:28AM 51.7068 -3.7722 108° East 346 398 28,200 1,380 Descending FlightAware UK
04:28AM 51.6950 -3.7140 108° East 369 425 29,500 1,080 Climbing FlightAware ADS-B
04:29AM 51.6788 -3.6307 107° East 366 421 29,200 -2,640 Descending FlightAware ADS-B
04:29AM 51.6703 -3.5846 107° East 342 394 27,400 -780 Descending FlightAware UK
04:29AM 51.6639 -3.5508 107° East 360 414 28,800 -660 Climbing FlightAware ADS-B
04:30AM 51.6531 -3.4921 107° East 340 391 27,000 -600 Descending FlightAware UK
04:30AM 51.6479 -3.4666 107° East 358 412 28,500 -540 Climbing FlightAware ADS-B
04:31AM 51.6238 -3.3401 107° East 332 382 26,500 -1,320 Descending FlightAware UK
04:31AM 51.6033 -3.2328 107° East 332 382 26,500  Level FlightAware UK
04:32AM 51.5893 -3.1564 106° East 334 384 26,500 2,100 Level FlightAware UK
04:32AM 51.5888 -3.1286 106° East 333 383 28,000 1,680 Climbing FlightAware ADS-B
04:33AM 51.6137 -3.0555 61° Northeast 249 287 28,000  Level FlightAware ADS-B
04:33AM 51.6222 -3.0496 23° Northeast 240 276 28,000  Level FlightAware ADS-B
04:33AM 51.6384 -3.0479 North 234 269 28,000  Level FlightAware ADS-B
04:33AM 51.6507 -3.0549 340° North 238 274 28,000  Level FlightAware ADS-B
04:34AM 51.6544 -3.0589 327° Northwest 242 278 28,000 -3,360 Level FlightAware ADS-B
04:34AM 51.6700 -3.0939 327° Northwest 336 387 26,500 -2,220 Descending FlightAware UK
04:34AM 51.6730 -3.1318 277° West 334 384 26,500  Level FlightAware UK
04:34AM 51.6712 -3.1733 266° West 332 382 26,500  Level FlightAware UK
04:35AM 51.6693 -3.2147 266° West 332 382 26,500  Level FlightAware UK
04:35AM 51.6672 -3.2687 266° West 332 382 26,500  Level FlightAware UK
04:36AM 51.6650 -3.3233 266° West 332 382 26,500  Level FlightAware UK
04:36AM 51.6617 -3.3644 263° West 332 382 26,500  Level FlightAware UK
04:36AM 51.6491 -3.4066 244° Southwest 332 382 26,500  Level FlightAware UK
04:37AM 51.5961 -3.4670 215° Southwest 334 384 26,500  Level FlightAware UK
04:37AM 51.5613 -3.4764 190° South 334 384 26,500  Level FlightAware UK
04:37AM 51.5256 -3.4696 173° South 334 384 26,500  Level FlightAware UK
04:38AM 51.4751 -3.4243 151° Southeast 334 384 26,500 1,620 Level FlightAware UK
04:38AM 51.4498 -3.3658 151° Southeast 367 422 28,000 2,760 Climbing FlightAware ADS-B
04:38AM 51.4465 -3.3506 109° East 356 410 28,000  Level FlightAware ADS-B
04:39AM 51.4443 -3.3305 100° East 337 388 28,000  Level FlightAware ADS-B
04:39AM 51.4446 -3.2993 89° East 319 367 28,000 -2,820 Level FlightAware ADS-B
04:39AM 51.4461 -3.2522 89° East 332 382 26,500  Descending FlightAware UK
04:39AM 51.4471 -3.2257 89° East 323 372 28,000  Climbing FlightAware ADS-B
04:40AM 51.4487 -3.1801 89° East 334 384 26,500  Descending FlightAware UK
04:40AM 51.4500 -3.1419 89° East 323 372 28,000 1,860 Climbing FlightAware ADS-B
04:40AM 51.4528 -3.0679 86° East 324 373 28,000 -1,800 Level FlightAware ADS-B
04:41AM 51.4544 -3.0224 86° East 330 380 26,500  Descending FlightAware UK
04:41AM 51.4560 -2.9912 86° East 328 377 28,000 -420 Climbing FlightAware ADS-B
04:41AM 51.4603 -2.9060 86° East 330 380 26,200 -540 Descending FlightAware UK
04:42AM 51.4617 -2.8796 86° East 327 376 27,600 1,140 Climbing FlightAware ADS-B
04:42AM 51.4649 -2.8075 86° East 324 373 27,000 -3,300 Descending FlightAware ADS-B
04:42AM 51.4667 -2.7615 86° East 324 373 25,000 -1,380 Descending FlightAware UK
04:43AM 51.4676 -2.7320 86° East 317 365 26,300 2,040 Climbing FlightAware ADS-B
04:43AM 51.4671 -2.7032 92° East 332 382 25,900 -1,740 Descending FlightAware ADS-B
04:43AM 51.4644 -2.6811 101° East 343 395 25,700 -5,160 Descending FlightAware ADS-B
04:43AM 51.4589 -2.6309 101° East 318 366 23,500 -1,860 Descending FlightAware UK
04:43AM 51.4585 -2.6197 101° East 329 379 24,900 -2,040 Climbing FlightAware ADS-B
04:44AM 51.4562 -2.5726 101° East 322 371 22,700 -1,800 Descending FlightAware UK
04:44AM 51.4540 -2.5436 101° East 334 384 24,000 840 Climbing FlightAware ADS-B
04:44AM 51.4484 -2.4700 97° East 332 382 23,300 -1,380 Descending FlightAware ADS-B
04:45AM 51.4424 -2.3953 97° East 327 376 22,600 -3,120 Descending FlightAware ADS-B
04:45AM 51.4378 -2.3390 97° East 302 348 20,500 -1,380 Descending FlightAware UK
04:46AM 51.4364 -2.3210 97° East 327 376 21,900 -1,500 Climbing FlightAware ADS-B
04:46AM 51.4332 -2.2818 97° East 300 345 19,900 -1,620 Descending FlightAware UK
04:46AM 51.4304 -2.2493 97° East 326 375 21,100 480 Climbing FlightAware ADS-B
04:47AM 51.4245 -2.1778 98° East 324 373 20,300 -3,240 Descending FlightAware ADS-B
04:47AM 51.4203 -2.1246 98° East 298 343 18,300 -1,200 Descending FlightAware UK
04:47AM 51.4185 -2.1046 98° East 320 368 19,700 -1,440 Climbing FlightAware ADS-B
04:47AM 51.4144 -2.0537 98° East 288 331 17,600 -1,500 Descending FlightAware UK
04:48AM 51.4124 -2.0297 98° East 320 368 18,900 660 Climbing FlightAware ADS-B
04:48AM 51.4059 -1.9547 98° East 317 365 18,100 -1,440 Descending FlightAware ADS-B
04:49AM 51.3999 -1.8828 98° East 316 364 17,400 -1,380 Descending FlightAware ADS-B
04:49AM 51.3940 -1.8113 98° East 314 361 16,700 -3,420 Descending FlightAware ADS-B
04:49AM 51.3909 -1.7749 98° East 280 322 14,800 -1,200 Descending FlightAware UK
04:50AM 51.3880 -1.7428 98° East 309 356 16,100 -1,200 Climbing FlightAware ADS-B
04:50AM 51.3840 -1.6937 98° East 278 320 14,100 -1,380 Descending FlightAware UK
04:50AM 51.3821 -1.6707 98° East 305 351 15,400 -1,200 Climbing FlightAware ADS-B
04:51AM 51.3784 -1.6264 98° East 278 320 13,500 -1,200 Descending FlightAware UK
04:51AM 51.3762 -1.6043 98° East 302 348 14,800 2,040 Climbing FlightAware ADS-B
04:51AM 51.3732 -1.5687 98° East 305 351 14,400 -1,200 Descending FlightAware ADS-B
04:51AM 51.3675 -1.5248 102° East 300 345 14,100 -840 Descending FlightAware ADS-B
04:52AM 51.3603 -1.4743 103° East 288 331 13,800 -1,020 Descending FlightAware ADS-B
04:52AM 51.3513 -1.4131 103° East 281 323 13,200 -1,200 Descending FlightAware ADS-B
04:53AM 51.3424 -1.3525 103° East 278 320 12,600 -1,200 Descending FlightAware ADS-B
04:53AM 51.3334 -1.2908 103° East 277 319 12,000 -1,320 Descending FlightAware ADS-B
04:54AM 51.3270 -1.2491 104° East 276 318 11,500 -1,260 Descending FlightAware ADS-B
04:54AM 51.3191 -1.1979 104° East 273 314 11,000 -840 Descending FlightAware ADS-B
04:54AM 51.3162 -1.1743 101° East 270 311 11,000  Level FlightAware ADS-B
04:54AM 51.3143 -1.1467 96° East 269 310 11,000 -2,820 Level FlightAware ADS-B
04:55AM 51.3131 -1.1108 96° East 256 295 9,500  Descending FlightAware UK
04:55AM 51.3124 -1.0873 96° East 266 306 11,000  Climbing FlightAware ADS-B
04:55AM 51.3114 -1.0516 96° East 254 292 9,500  Descending FlightAware UK
04:55AM 51.3110 -1.0281 96° East 267 307 11,000 2,160 Climbing FlightAware ADS-B
04:56AM 51.3100 -0.9708 92° East 266 306 11,000 -1,920 Level FlightAware ADS-B
04:56AM 51.3094 -0.9328 92° East 254 292 9,500  Descending FlightAware UK
04:56AM 51.3096 -0.9122 92° East 263 303 11,000 2,460 Climbing FlightAware ADS-B
04:57AM 51.3101 -0.8658 89° East 262 302 11,000 -2,160 Level FlightAware ADS-B
04:57AM 51.3101 -0.8283 89° East 256 295 9,500  Descending FlightAware UK
04:57AM 51.3093 -0.8056 89° East 262 302 11,000 2,460 Climbing FlightAware ADS-B
04:58AM 51.3080 -0.7589 93° East 262 302 11,000 -2,160 Level FlightAware ADS-B
04:58AM 51.3071 -0.7235 93° East 252 290 9,500  Descending FlightAware UK
04:58AM 51.3069 -0.7014 93° East 260 299 11,000 2,100 Climbing FlightAware ADS-B
04:59AM 51.3056 -0.6434 92° East 263 303 11,000 -420 Level FlightAware ADS-B
04:59AM 51.3048 -0.5877 91° East 258 297 10,600 -1,020 Descending FlightAware ADS-B
05:00AM 51.3038 -0.5270 91° East 256 295 10,000 -1,200 Descending FlightAware ADS-B
05:00AM 51.3036 -0.4984 91° East 256 295 9,700 -1,140 Descending FlightAware ADS-B
05:00AM 51.3036 -0.4664 90° East 256 295 9,400 -960 Descending FlightAware ADS-B
05:01AM 51.3036 -0.4379 90° East 255 293 9,200 -900 Descending FlightAware ADS-B
05:01AM 51.3035 -0.4305 91° East 255 293 9,100 -1,380 Descending FlightAware ADS-B
05:01AM 51.3032 -0.4210 93° East 256 295 9,000 -600 Descending FlightAware ADS-B
05:01AM 51.3015 -0.4099 104° East 259 298 9,000 300 Level FlightAware ADS-B
05:01AM 51.2959 -0.3861 111° Southeast 264 304 9,100  Climbing FlightAware ADS-B
05:01AM 51.2895 -0.3503 106° East 265 305 9,000 -180 Descending FlightAware ADS-B
05:02AM 51.2829 -0.3113 105° East 261 300 9,000  Level FlightAware ADS-B
05:02AM 51.2781 -0.2834 105° East 262 302 9,000  Level FlightAware ADS-B
05:02AM 51.2697 -0.2592 119° Southeast 269 310 9,000  Level FlightAware ADS-B
05:02AM 51.2546 -0.2421 145° Southeast 272 313 9,000  Level FlightAware ADS-B
05:03AM 51.2456 -0.2381 165° South 271 312 9,000  Level FlightAware ADS-B
05:03AM 51.2407 -0.2372 173° South 268 308 9,000  Level FlightAware ADS-B
05:03AM 51.2316 -0.2384 185° South 263 303 9,000  Level FlightAware ADS-B
05:03AM 51.2172 -0.2478 202° Southwest 257 296 9,000  Level FlightAware ADS-B
05:03AM 51.2135 -0.2522 217° Southwest 252 290 9,000  Level FlightAware ADS-B
05:03AM 51.2090 -0.2586 222° Southwest 248 285 9,000  Level FlightAware ADS-B
05:03AM 51.2050 -0.2675 234° Southwest 244 281 9,000  Level FlightAware ADS-B
05:03AM 51.2030 -0.2739 244° Southwest 240 276 9,000  Level FlightAware ADS-B
05:03AM 51.2004 -0.2872 253° West 235 270 9,000  Level FlightAware ADS-B
05:03AM 51.2000 -0.2922 263° West 232 267 9,000  Level FlightAware ADS-B
05:03AM 51.1999 -0.2990 269° West 229 264 9,000  Level FlightAware ADS-B
05:04AM 51.2002 -0.3058 274° West 226 260 9,000  Level FlightAware ADS-B
05:04AM 51.2010 -0.3124 281° West 225 259 9,000  Level FlightAware ADS-B
05:04AM 51.2029 -0.3217 288° West 222 255 9,000  Level FlightAware ADS-B
05:04AM 51.2048 -0.3262 304° West 222 255 9,000  Level FlightAware ADS-B
05:04AM 51.2075 -0.3332 302° West 221 254 9,000  Level FlightAware ADS-B
05:04AM 51.2109 -0.3394 311° West 219 252 9,000  Level FlightAware ADS-B
05:04AM 51.2174 -0.3490 317° Northwest 218 251 9,000  Level FlightAware ADS-B
05:04AM 51.2288 -0.3617 325° Northwest 217 250 9,000  Level FlightAware ADS-B
05:05AM 51.2405 -0.3754 324° Northwest 216 249 9,000  Level FlightAware ADS-B
05:05AM 51.2530 -0.3906 323° Northwest 216 249 9,000 -240 Level FlightAware ADS-B
05:05AM 51.2660 -0.4060 324° Northwest 219 252 8,900 -600 Descending FlightAware ADS-B
05:05AM 51.2795 -0.4213 325° Northwest 219 252 8,700 -780 Descending FlightAware ADS-B
05:06AM 51.2926 -0.4354 326° Northwest 218 251 8,500 -840 Descending FlightAware ADS-B
05:06AM 51.3053 -0.4485 327° Northwest 216 249 8,300 -900 Descending FlightAware ADS-B
05:06AM 51.3161 -0.4567 335° Northwest 215 247 8,100 -780 Descending FlightAware ADS-B
05:06AM 51.3203 -0.4575 354° North 216 249 8,100 -780 Level FlightAware ADS-B
05:06AM 51.3238 -0.4575 360° North 216 249 8,000 -480 Descending FlightAware ADS-B
05:06AM 51.3331 -0.4567 North 219 252 8,000  Level FlightAware ADS-B
05:06AM 51.3375 -0.4559 North 221 254 8,000  Level FlightAware ADS-B
05:06AM 51.3408 -0.4546 14° North 222 255 8,000  Level FlightAware ADS-B
05:07AM 51.3450 -0.4510 28° Northeast 225 259 8,000  Level FlightAware ADS-B
05:07AM 51.3476 -0.4481 35° Northeast 228 262 8,000  Level FlightAware ADS-B
05:07AM 51.3504 -0.4434 46° Northeast 231 266 8,000  Level FlightAware ADS-B
05:07AM 51.3534 -0.4379 49° Northeast 234 269 8,000  Level FlightAware ADS-B
05:07AM 51.3579 -0.4198 68° East 244 281 8,000  Level FlightAware ADS-B
05:07AM 51.3586 -0.4123 81° East 249 287 8,000  Level FlightAware ADS-B
05:07AM 51.3595 -0.3771 88° East 251 289 8,000  Level FlightAware ADS-B
05:08AM 51.3606 -0.3493 86° East 249 287 8,000  Level FlightAware ADS-B
05:08AM 51.3618 -0.3181 86° East 248 285 8,000 -600 Level FlightAware ADS-B
05:08AM 51.3631 -0.2909 86° East 247 284 7,700 -1,200 Descending FlightAware ADS-B
05:08AM 51.3643 -0.2637 86° East 246 283 7,400 -1,080 Descending FlightAware ADS-B
05:08AM 51.3652 -0.2475 85° East 243 280 7,300 -780 Descending FlightAware ADS-B
05:09AM 51.3671 -0.2335 78° East 241 277 7,200 -900 Descending FlightAware ADS-B
05:09AM 51.3721 -0.2025 75° East 240 276 6,900 -900 Descending FlightAware ADS-B
05:09AM 51.3761 -0.1768 76° East 238 274 6,700 -1,020 Descending FlightAware ADS-B
05:09AM 51.3802 -0.1494 77° East 236 272 6,400 -780 Descending FlightAware ADS-B
05:10AM 51.3844 -0.1212 77° East 229 264 6,300 -540 Descending FlightAware ADS-B
05:10AM 51.3883 -0.0952 76° East 221 254 6,100 -600 Descending FlightAware ADS-B
05:10AM 51.3918 -0.0721 76° East 210 242 6,000 -600 Descending FlightAware ADS-B
05:11AM 51.3952 -0.0484 77° East 203 234 5,800 -840 Descending FlightAware ADS-B
05:11AM 51.4002 -0.0157 76° East 192 221 5,500 -900 Descending FlightAware ADS-B
05:11AM 51.4072 -0.0038 47° Northeast 174 200 5,300 -840 Descending FlightAware ADS-B
05:11AM 51.4142 -0.0003 17° North 168 193 5,200 -420 Descending FlightAware ADS-B
05:11AM 51.4185 -0.0001 North 166 191 5,200 -300 Level FlightAware ADS-B
05:12AM 51.4315 0.0000 360° North 165 190 5,100 -480 Descending FlightAware ADS-B
05:12AM 51.4392 -0.0032 346° North 159 183 5,000 -480 Descending FlightAware ADS-B
05:12AM 51.4453 -0.0174 305° West 159 183 4,900 -360 Descending FlightAware ADS-B
05:12AM 51.4462 -0.0220 288° West 162 186 4,900 -300 Level FlightAware ADS-B
05:12AM 51.4503 -0.0401 290° West 161 185 4,800 -600 Descending FlightAware ADS-B
05:12AM 51.4519 -0.0467 291° West 159 183 4,700 -540 Descending FlightAware ADS-B
05:13AM 51.4568 -0.0664 292° West 159 183 4,600 -360 Descending FlightAware ADS-B
05:13AM 51.4613 -0.0840 292° West 158 182 4,500 -480 Descending FlightAware ADS-B
05:13AM 51.4640 -0.0960 290° West 158 182 4,400 -420 Descending FlightAware ADS-B
05:13AM 51.4646 -0.1030 278° West 160 184 4,400 -720 Level FlightAware ADS-B
05:13AM 51.4647 -0.1077 272° West 157 181 4,300 -600 Descending FlightAware ADS-B
05:13AM 51.4648 -0.1148 271° West 153 176 4,300 -480 Level FlightAware ADS-B
05:14AM 51.4655 -0.1344 273° West 145 167 4,100 -720 Descending FlightAware ADS-B
05:14AM 51.4657 -0.1441 272° West 144 166 4,000 -780 Descending FlightAware ADS-B
05:14AM 51.4655 -0.1611 269° West 141 162 3,800 -960 Descending FlightAware ADS-B
05:14AM 51.4655 -0.1788 270° West 140 161 3,500 -900 Descending FlightAware ADS-B
05:15AM 51.4653 -0.1975 269° West 139 160 3,300 -780 Descending FlightAware ADS-B
05:15AM 51.4654 -0.2201 270° West 138 159 3,000 -780 Descending FlightAware ADS-B
05:15AM 51.4654 -0.2376 270° West 138 159 2,800 -3,540 Descending FlightAware ADS-B
05:16AM 51.4654 -0.2560 270° West 168 193 1,000 -2,820 Descending FlightAware UK
05:16AM 51.4653 -0.2868 270° West 164 189 600 -780 Descending FlightAware UK
05:17AM 51.4653 -0.3053 270° West 166 191 400 -720 Descending FlightAware UK
05:20AM 51.4667 -0.4500 90° East  Level FlightAware Approximate